sensor_id;sensor_type;location;lat;lon;timestamp;temperature;humidity
43581;DHT22;29175;51.030;4.606;2022-12-05T00:01:33;4.80;99.90
43581;DHT22;29175;51.030;4.606;2022-12-05T00:04:03;4.90;99.90
43581;DHT22;29175;51.030;4.606;2022-12-05T00:06:30;4.80;99.90
43581;DHT22;29175;51.030;4.606;2022-12-05T00:08:58;5.00;99.90
43581;DHT22;29175;51.030;4.606;2022-12-05T00:11:26;4.80;99.90
43581;DHT22;29175;51.030;4.606;2022-12-05T00:13:53;4.90;99.90
43581;DHT22;29175;51.030;4.606;2022-12-05T00:16:25;5.00;99.90
43581;DHT22;29175;51.030;4.606;2022-12-05T00:18:51;5.00;99.90
43581;DHT22;29175;51.030;4.606;2022-12-05T00:21:20;4.90;99.90
43581;DHT22;29175;51.030;4.606;2022-12-05T00:23:46;4.90;99.90
43581;DHT22;29175;51.030;4.606;2022-12-05T00:26:12;4.90;99.90
43581;DHT22;29175;51.030;4.606;2022-12-05T00:28:39;4.90;99.90
43581;DHT22;29175;51.030;4.606;2022-12-05T00:31:10;5.00;99.90
43581;DHT22;29175;51.030;4.606;2022-12-05T00:33:37;5.10;99.90
43581;DHT22;29175;51.030;4.606;2022-12-05T00:36:06;4.90;99.90
43581;DHT22;29175;51.030;4.606;2022-12-05T00:38:32;4.90;99.90
43581;DHT22;29175;51.030;4.606;2022-12-05T00:41:06;4.90;99.90
43581;DHT22;29175;51.030;4.606;2022-12-05T00:43:32;5.00;99.90
43581;DHT22;29175;51.030;4.606;2022-12-05T00:46:02;5.00;99.90
43581;DHT22;29175;51.030;4.606;2022-12-05T00:48:29;5.00;99.90
43581;DHT22;29175;51.030;4.606;2022-12-05T00:51:05;5.00;99.90
43581;DHT22;29175;51.030;4.606;2022-12-05T00:53:31;5.00;99.90
43581;DHT22;29175;51.030;4.606;2022-12-05T00:56:11;5.10;99.90
43581;DHT22;29175;51.030;4.606;2022-12-05T00:58:37;5.20;99.90
43581;DHT22;29175;51.030;4.606;2022-12-05T01:01:17;5.10;99.90
43581;DHT22;29175;51.030;4.606;2022-12-05T01:03:44;5.10;99.90
43581;DHT22;29175;51.030;4.606;2022-12-05T01:06:12;5.10;99.90
43581;DHT22;29175;51.030;4.606;2022-12-05T01:08:39;4.90;99.90
43581;DHT22;29175;51.030;4.606;2022-12-05T01:11:05;4.90;99.90
43581;DHT22;29175;51.030;4.606;2022-12-05T01:13:32;5.00;99.90
43581;DHT22;29175;51.030;4.606;2022-12-05T01:15:58;5.10;99.90
43581;DHT22;29175;51.030;4.606;2022-12-05T01:18:25;5.10;99.90
43581;DHT22;29175;51.030;4.606;2022-12-05T01:20:51;5.10;99.90
43581;DHT22;29175;51.030;4.606;2022-12-05T01:23:17;5.00;99.90
43581;DHT22;29175;51.030;4.606;2022-12-05T01:25:46;5.00;99.90
43581;DHT22;29175;51.030;4.606;2022-12-05T01:28:13;5.10;99.90
43581;DHT22;29175;51.030;4.606;2022-12-05T01:30:40;5.10;99.90
43581;DHT22;29175;51.030;4.606;2022-12-05T01:33:07;5.20;99.90
43581;DHT22;29175;51.030;4.606;2022-12-05T01:35:35;5.10;99.90
43581;DHT22;29175;51.030;4.606;2022-12-05T01:38:02;5.10;99.90
43581;DHT22;29175;51.030;4.606;2022-12-05T01:40:29;5.10;99.90
43581;DHT22;29175;51.030;4.606;2022-12-05T01:42:54;5.00;99.90
43581;DHT22;29175;51.030;4.606;2022-12-05T01:45:36;5.10;99.90
43581;DHT22;29175;51.030;4.606;2022-12-05T01:48:06;5.10;99.90
43581;DHT22;29175;51.030;4.606;2022-12-05T01:50:34;5.20;99.90
43581;DHT22;29175;51.030;4.606;2022-12-05T01:53:00;5.10;99.90
43581;DHT22;29175;51.030;4.606;2022-12-05T01:55:26;5.20;99.90
43581;DHT22;29175;51.030;4.606;2022-12-05T01:57:52;5.00;99.90
43581;DHT22;29175;51.030;4.606;2022-12-05T02:00:19;5.00;99.90
43581;DHT22;29175;51.030;4.606;2022-12-05T02:02:53;5.00;99.90
43581;DHT22;29175;51.030;4.606;2022-12-05T02:05:24;5.00;99.90
43581;DHT22;29175;51.030;4.606;2022-12-05T02:07:51;5.00;99.90
43581;DHT22;29175;51.030;4.606;2022-12-05T02:10:17;5.10;99.90
43581;DHT22;29175;51.030;4.606;2022-12-05T02:12:43;4.70;99.90
43581;DHT22;29175;51.030;4.606;2022-12-05T02:20:51;4.90;99.90
43581;DHT22;29175;51.030;4.606;2022-12-05T02:35:15;5.30;99.90
43581;DHT22;29175;51.030;4.606;2022-12-05T02:40:38;5.10;99.90
43581;DHT22;29175;51.030;4.606;2022-12-05T02:43:21;5.20;99.90
43581;DHT22;29175;51.030;4.606;2022-12-05T02:45:51;5.00;99.90
43581;DHT22;29175;51.030;4.606;2022-12-05T02:48:19;5.10;99.90
43581;DHT22;29175;51.030;4.606;2022-12-05T02:50:47;5.30;99.90
43581;DHT22;29175;51.030;4.606;2022-12-05T02:53:14;5.10;99.90
43581;DHT22;29175;51.030;4.606;2022-12-05T02:55:42;5.20;99.90
43581;DHT22;29175;51.030;4.606;2022-12-05T02:58:16;5.30;99.90
43581;DHT22;29175;51.030;4.606;2022-12-05T03:00:47;5.40;99.90
43581;DHT22;29175;51.030;4.606;2022-12-05T03:03:16;5.50;99.90
43581;DHT22;29175;51.030;4.606;2022-12-05T03:05:46;5.30;99.90
43581;DHT22;29175;51.030;4.606;2022-12-05T03:08:19;5.30;99.90
43581;DHT22;29175;51.030;4.606;2022-12-05T03:10:46;5.20;99.90
43581;DHT22;29175;51.030;4.606;2022-12-05T03:13:19;5.00;99.90
43581;DHT22;29175;51.030;4.606;2022-12-05T03:15:52;4.80;99.90
43581;DHT22;29175;51.030;4.606;2022-12-05T03:18:28;4.80;99.90
43581;DHT22;29175;51.030;4.606;2022-12-05T03:21:29;4.90;99.90
43581;DHT22;29175;51.030;4.606;2022-12-05T03:24:02;5.10;99.90
43581;DHT22;29175;51.030;4.606;2022-12-05T03:29:49;5.10;99.90
43581;DHT22;29175;51.030;4.606;2022-12-05T03:32:23;5.10;99.90
43581;DHT22;29175;51.030;4.606;2022-12-05T03:40:35;5.10;99.90
43581;DHT22;29175;51.030;4.606;2022-12-05T03:43:12;5.00;99.90
43581;DHT22;29175;51.030;4.606;2022-12-05T03:45:52;5.00;99.90
43581;DHT22;29175;51.030;4.606;2022-12-05T03:51:03;4.90;99.90
43581;DHT22;29175;51.030;4.606;2022-12-05T03:53:57;5.00;99.90
43581;DHT22;29175;51.030;4.606;2022-12-05T03:56:34;5.10;99.90
43581;DHT22;29175;51.030;4.606;2022-12-05T03:59:14;5.00;99.90
43581;DHT22;29175;51.030;4.606;2022-12-05T04:01:42;5.00;99.90
43581;DHT22;29175;51.030;4.606;2022-12-05T04:04:16;5.20;99.90
43581;DHT22;29175;51.030;4.606;2022-12-05T04:06:47;5.20;99.90
43581;DHT22;29175;51.030;4.606;2022-12-05T04:09:19;5.20;99.90
43581;DHT22;29175;51.030;4.606;2022-12-05T04:11:51;5.00;99.90
43581;DHT22;29175;51.030;4.606;2022-12-05T04:14:29;4.90;99.90
43581;DHT22;29175;51.030;4.606;2022-12-05T04:17:02;5.00;99.90
43581;DHT22;29175;51.030;4.606;2022-12-05T04:20:12;5.00;99.90
43581;DHT22;29175;51.030;4.606;2022-12-05T04:22:58;5.10;99.90
43581;DHT22;29175;51.030;4.606;2022-12-05T04:25:25;5.20;99.90
43581;DHT22;29175;51.030;4.606;2022-12-05T04:28:26;5.10;99.90
43581;DHT22;29175;51.030;4.606;2022-12-05T04:31:51;5.30;99.90
43581;DHT22;29175;51.030;4.606;2022-12-05T04:34:03;5.00;99.90
43581;DHT22;29175;51.030;4.606;2022-12-05T04:39:38;5.10;99.90
43581;DHT22;29175;51.030;4.606;2022-12-05T04:42:26;5.10;99.90
43581;DHT22;29175;51.030;4.606;2022-12-05T04:44:56;5.20;99.90
43581;DHT22;29175;51.030;4.606;2022-12-05T04:47:28;5.10;99.90
43581;DHT22;29175;51.030;4.606;2022-12-05T04:49:55;5.10;99.90
43581;DHT22;29175;51.030;4.606;2022-12-05T04:52:24;5.10;99.90
43581;DHT22;29175;51.030;4.606;2022-12-05T04:54:56;5.10;99.90
43581;DHT22;29175;51.030;4.606;2022-12-05T04:57:32;5.10;99.90
43581;DHT22;29175;51.030;4.606;2022-12-05T04:59:58;5.20;99.90
43581;DHT22;29175;51.030;4.606;2022-12-05T05:02:32;5.10;99.90
43581;DHT22;29175;51.030;4.606;2022-12-05T05:05:01;5.10;99.90
43581;DHT22;29175;51.030;4.606;2022-12-05T05:07:28;5.10;99.90
43581;DHT22;29175;51.030;4.606;2022-12-05T05:09:55;5.10;99.90
43581;DHT22;29175;51.030;4.606;2022-12-05T05:12:21;5.10;99.90
43581;DHT22;29175;51.030;4.606;2022-12-05T05:14:46;5.20;99.90
43581;DHT22;29175;51.030;4.606;2022-12-05T05:17:13;5.20;99.90
43581;DHT22;29175;51.030;4.606;2022-12-05T05:19:39;5.00;99.90
43581;DHT22;29175;51.030;4.606;2022-12-05T05:22:04;5.20;99.90
43581;DHT22;29175;51.030;4.606;2022-12-05T05:24:30;5.30;99.90
43581;DHT22;29175;51.030;4.606;2022-12-05T05:26:56;5.20;99.90
43581;DHT22;29175;51.030;4.606;2022-12-05T05:29:21;5.40;99.90
43581;DHT22;29175;51.030;4.606;2022-12-05T05:31:47;5.60;99.90
43581;DHT22;29175;51.030;4.606;2022-12-05T05:34:13;5.60;99.90
43581;DHT22;29175;51.030;4.606;2022-12-05T05:36:40;5.70;99.90
43581;DHT22;29175;51.030;4.606;2022-12-05T05:39:11;5.80;99.90
43581;DHT22;29175;51.030;4.606;2022-12-05T05:41:36;5.70;99.90
43581;DHT22;29175;51.030;4.606;2022-12-05T05:44:03;5.60;99.90
43581;DHT22;29175;51.030;4.606;2022-12-05T05:46:30;5.60;99.90
43581;DHT22;29175;51.030;4.606;2022-12-05T05:48:57;5.40;99.90
43581;DHT22;29175;51.030;4.606;2022-12-05T05:51:23;5.50;99.90
43581;DHT22;29175;51.030;4.606;2022-12-05T05:53:54;5.20;99.90
43581;DHT22;29175;51.030;4.606;2022-12-05T05:56:21;5.40;99.90
43581;DHT22;29175;51.030;4.606;2022-12-05T05:58:47;5.60;99.90
43581;DHT22;29175;51.030;4.606;2022-12-05T06:01:16;5.60;99.90
43581;DHT22;29175;51.030;4.606;2022-12-05T06:03:44;5.40;99.90
43581;DHT22;29175;51.030;4.606;2022-12-05T06:06:12;5.50;99.90
43581;DHT22;29175;51.030;4.606;2022-12-05T06:08:40;5.40;99.90
43581;DHT22;29175;51.030;4.606;2022-12-05T06:11:21;5.40;99.90
43581;DHT22;29175;51.030;4.606;2022-12-05T06:13:47;5.60;99.90
43581;DHT22;29175;51.030;4.606;2022-12-05T06:16:15;5.80;99.90
43581;DHT22;29175;51.030;4.606;2022-12-05T06:18:41;5.60;99.90
43581;DHT22;29175;51.030;4.606;2022-12-05T06:21:07;5.90;99.90
43581;DHT22;29175;51.030;4.606;2022-12-05T06:23:34;5.90;99.90
43581;DHT22;29175;51.030;4.606;2022-12-05T06:26:01;5.70;99.90
43581;DHT22;29175;51.030;4.606;2022-12-05T06:28:27;5.40;99.90
43581;DHT22;29175;51.030;4.606;2022-12-05T06:30:53;5.60;99.90
43581;DHT22;29175;51.030;4.606;2022-12-05T06:33:19;5.70;99.90
43581;DHT22;29175;51.030;4.606;2022-12-05T06:35:45;5.70;99.90
43581;DHT22;29175;51.030;4.606;2022-12-05T06:38:11;5.70;99.90
43581;DHT22;29175;51.030;4.606;2022-12-05T06:40:41;5.70;99.90
43581;DHT22;29175;51.030;4.606;2022-12-05T06:43:08;5.70;99.90
43581;DHT22;29175;51.030;4.606;2022-12-05T06:45:33;5.70;99.90
43581;DHT22;29175;51.030;4.606;2022-12-05T06:48:01;5.40;99.90
43581;DHT22;29175;51.030;4.606;2022-12-05T06:50:27;5.70;99.90
43581;DHT22;29175;51.030;4.606;2022-12-05T06:52:52;5.60;99.90
43581;DHT22;29175;51.030;4.606;2022-12-05T06:55:18;5.80;99.90
43581;DHT22;29175;51.030;4.606;2022-12-05T06:57:44;5.90;99.90
43581;DHT22;29175;51.030;4.606;2022-12-05T07:00:10;6.00;99.90
43581;DHT22;29175;51.030;4.606;2022-12-05T07:02:55;5.90;99.90
43581;DHT22;29175;51.030;4.606;2022-12-05T07:05:21;5.90;99.90
43581;DHT22;29175;51.030;4.606;2022-12-05T07:07:46;5.90;99.90
43581;DHT22;29175;51.030;4.606;2022-12-05T07:10:12;6.00;99.90
43581;DHT22;29175;51.030;4.606;2022-12-05T07:12:38;6.10;99.90
43581;DHT22;29175;51.030;4.606;2022-12-05T07:15:04;6.00;99.90
43581;DHT22;29175;51.030;4.606;2022-12-05T07:17:35;5.80;99.90
43581;DHT22;29175;51.030;4.606;2022-12-05T07:20:04;5.80;99.90
43581;DHT22;29175;51.030;4.606;2022-12-05T07:22:33;5.90;99.90
43581;DHT22;29175;51.030;4.606;2022-12-05T07:24:59;5.90;99.90
43581;DHT22;29175;51.030;4.606;2022-12-05T07:27:25;5.70;99.90
43581;DHT22;29175;51.030;4.606;2022-12-05T07:29:50;5.70;99.90
43581;DHT22;29175;51.030;4.606;2022-12-05T07:32:16;5.60;99.90
43581;DHT22;29175;51.030;4.606;2022-12-05T07:34:42;5.60;99.90
43581;DHT22;29175;51.030;4.606;2022-12-05T07:37:07;5.60;99.90
43581;DHT22;29175;51.030;4.606;2022-12-05T07:39:33;5.50;99.90
43581;DHT22;29175;51.030;4.606;2022-12-05T07:41:59;5.60;99.90
43581;DHT22;29175;51.030;4.606;2022-12-05T07:44:25;5.80;99.90
43581;DHT22;29175;51.030;4.606;2022-12-05T07:46:50;5.70;99.90
43581;DHT22;29175;51.030;4.606;2022-12-05T07:49:16;5.90;99.90
43581;DHT22;29175;51.030;4.606;2022-12-05T07:51:42;5.90;99.90
43581;DHT22;29175;51.030;4.606;2022-12-05T07:54:08;6.00;99.90
43581;DHT22;29175;51.030;4.606;2022-12-05T07:56:34;6.00;99.90
43581;DHT22;29175;51.030;4.606;2022-12-05T07:59:00;6.00;99.90
43581;DHT22;29175;51.030;4.606;2022-12-05T08:01:29;6.10;99.90
43581;DHT22;29175;51.030;4.606;2022-12-05T08:03:56;6.10;99.90
43581;DHT22;29175;51.030;4.606;2022-12-05T08:06:25;6.10;99.90
43581;DHT22;29175;51.030;4.606;2022-12-05T08:08:52;6.10;99.90
43581;DHT22;29175;51.030;4.606;2022-12-05T08:11:23;6.10;99.90
43581;DHT22;29175;51.030;4.606;2022-12-05T08:13:50;6.10;99.90
43581;DHT22;29175;51.030;4.606;2022-12-05T08:16:18;6.20;99.90
43581;DHT22;29175;51.030;4.606;2022-12-05T08:18:44;6.10;99.90
43581;DHT22;29175;51.030;4.606;2022-12-05T08:21:16;6.00;99.90
43581;DHT22;29175;51.030;4.606;2022-12-05T08:23:43;6.00;99.90
43581;DHT22;29175;51.030;4.606;2022-12-05T08:28:36;6.00;99.90
43581;DHT22;29175;51.030;4.606;2022-12-05T08:31:10;6.10;99.90
43581;DHT22;29175;51.030;4.606;2022-12-05T08:33:37;6.00;99.90
43581;DHT22;29175;51.030;4.606;2022-12-05T08:36:05;5.90;99.90
43581;DHT22;29175;51.030;4.606;2022-12-05T08:38:31;5.90;99.90
43581;DHT22;29175;51.030;4.606;2022-12-05T08:41:00;5.80;99.90
43581;DHT22;29175;51.030;4.606;2022-12-05T08:43:27;5.80;99.90
43581;DHT22;29175;51.030;4.606;2022-12-05T08:45:53;5.80;99.90
43581;DHT22;29175;51.030;4.606;2022-12-05T08:48:19;5.90;99.90
43581;DHT22;29175;51.030;4.606;2022-12-05T08:50:45;6.10;99.90
43581;DHT22;29175;51.030;4.606;2022-12-05T08:53:11;6.20;99.90
43581;DHT22;29175;51.030;4.606;2022-12-05T08:55:36;6.30;99.90
43581;DHT22;29175;51.030;4.606;2022-12-05T08:58:03;6.50;99.90
43581;DHT22;29175;51.030;4.606;2022-12-05T09:00:28;6.40;99.90
43581;DHT22;29175;51.030;4.606;2022-12-05T09:02:54;6.50;99.90
43581;DHT22;29175;51.030;4.606;2022-12-05T09:05:21;6.60;99.90
43581;DHT22;29175;51.030;4.606;2022-12-05T09:07:47;6.60;99.90
43581;DHT22;29175;51.030;4.606;2022-12-05T09:10:13;6.20;99.90
43581;DHT22;29175;51.030;4.606;2022-12-05T09:12:39;6.30;99.90
43581;DHT22;29175;51.030;4.606;2022-12-05T09:15:09;6.40;99.90
43581;DHT22;29175;51.030;4.606;2022-12-05T09:17:35;6.50;99.90
43581;DHT22;29175;51.030;4.606;2022-12-05T09:20:01;6.50;99.90
43581;DHT22;29175;51.030;4.606;2022-12-05T09:22:26;6.60;99.90
43581;DHT22;29175;51.030;4.606;2022-12-05T09:24:52;6.60;99.90
43581;DHT22;29175;51.030;4.606;2022-12-05T09:27:18;6.60;99.90
43581;DHT22;29175;51.030;4.606;2022-12-05T09:29:43;6.60;99.90
43581;DHT22;29175;51.030;4.606;2022-12-05T09:32:10;6.70;99.90
43581;DHT22;29175;51.030;4.606;2022-12-05T09:34:36;6.70;99.90
43581;DHT22;29175;51.030;4.606;2022-12-05T09:37:03;6.80;99.90
43581;DHT22;29175;51.030;4.606;2022-12-05T09:39:29;6.70;99.90
43581;DHT22;29175;51.030;4.606;2022-12-05T09:45:08;6.50;99.90
43581;DHT22;29175;51.030;4.606;2022-12-05T09:50:14;6.70;99.90
43581;DHT22;29175;51.030;4.606;2022-12-05T09:52:50;6.30;99.90
43581;DHT22;29175;51.030;4.606;2022-12-05T09:55:19;6.50;99.90
43581;DHT22;29175;51.030;4.606;2022-12-05T09:57:50;6.40;99.90
43581;DHT22;29175;51.030;4.606;2022-12-05T10:00:16;6.60;99.90
43581;DHT22;29175;51.030;4.606;2022-12-05T10:03:20;6.70;99.90
43581;DHT22;29175;51.030;4.606;2022-12-05T10:05:47;6.70;99.90
43581;DHT22;29175;51.030;4.606;2022-12-05T10:08:25;6.80;99.90
43581;DHT22;29175;51.030;4.606;2022-12-05T10:11:13;7.00;99.90
43581;DHT22;29175;51.030;4.606;2022-12-05T10:14:32;7.00;99.90
43581;DHT22;29175;51.030;4.606;2022-12-05T10:16:57;6.70;99.90
43581;DHT22;29175;51.030;4.606;2022-12-05T10:19:35;6.50;99.90
43581;DHT22;29175;51.030;4.606;2022-12-05T10:24:43;6.70;99.90
43581;DHT22;29175;51.030;4.606;2022-12-05T10:27:44;6.80;99.90
43581;DHT22;29175;51.030;4.606;2022-12-05T10:35:37;7.30;99.90
43581;DHT22;29175;51.030;4.606;2022-12-05T10:40:36;7.20;99.90
43581;DHT22;29175;51.030;4.606;2022-12-05T10:43:04;7.30;99.90
43581;DHT22;29175;51.030;4.606;2022-12-05T10:45:30;7.20;99.90
43581;DHT22;29175;51.030;4.606;2022-12-05T10:47:57;6.90;99.90
43581;DHT22;29175;51.030;4.606;2022-12-05T10:50:30;6.60;99.90
43581;DHT22;29175;51.030;4.606;2022-12-05T10:52:58;6.70;99.90
43581;DHT22;29175;51.030;4.606;2022-12-05T10:55:30;6.70;99.90
43581;DHT22;29175;51.030;4.606;2022-12-05T10:58:17;6.80;99.90
43581;DHT22;29175;51.030;4.606;2022-12-05T11:00:58;6.90;99.90
43581;DHT22;29175;51.030;4.606;2022-12-05T11:03:36;6.60;99.90
43581;DHT22;29175;51.030;4.606;2022-12-05T11:06:24;6.40;99.90
43581;DHT22;29175;51.030;4.606;2022-12-05T11:09:13;6.50;99.90
43581;DHT22;29175;51.030;4.606;2022-12-05T11:11:37;6.80;99.90
43581;DHT22;29175;51.030;4.606;2022-12-05T11:14:27;6.90;99.90
43581;DHT22;29175;51.030;4.606;2022-12-05T11:16:59;6.90;99.90
43581;DHT22;29175;51.030;4.606;2022-12-05T11:19:33;6.80;99.90
43581;DHT22;29175;51.030;4.606;2022-12-05T11:22:00;6.90;99.90
43581;DHT22;29175;51.030;4.606;2022-12-05T11:27:26;7.00;99.90
43581;DHT22;29175;51.030;4.606;2022-12-05T11:32:36;6.60;99.90
43581;DHT22;29175;51.030;4.606;2022-12-05T11:35:21;6.80;99.90
43581;DHT22;29175;51.030;4.606;2022-12-05T11:37:57;6.70;99.90
43581;DHT22;29175;51.030;4.606;2022-12-05T11:40:52;6.50;99.90
43581;DHT22;29175;51.030;4.606;2022-12-05T11:48:50;6.60;99.90
43581;DHT22;29175;51.030;4.606;2022-12-05T11:56:38;6.90;99.90
43581;DHT22;29175;51.030;4.606;2022-12-05T12:04:41;7.00;99.90
43581;DHT22;29175;51.030;4.606;2022-12-05T12:10:21;7.10;99.90
43581;DHT22;29175;51.030;4.606;2022-12-05T12:13:12;6.80;99.90
43581;DHT22;29175;51.030;4.606;2022-12-05T12:16:06;7.00;99.90
43581;DHT22;29175;51.030;4.606;2022-12-05T12:21:34;7.20;99.90
43581;DHT22;29175;51.030;4.606;2022-12-05T12:27:02;7.00;99.90
43581;DHT22;29175;51.030;4.606;2022-12-05T12:35:30;6.90;99.90
43581;DHT22;29175;51.030;4.606;2022-12-05T12:38:06;7.00;99.90
43581;DHT22;29175;51.030;4.606;2022-12-05T12:40:52;7.00;99.90
43581;DHT22;29175;51.030;4.606;2022-12-05T12:49:16;7.10;99.90
43581;DHT22;29175;51.030;4.606;2022-12-05T12:51:52;7.20;99.90
43581;DHT22;29175;51.030;4.606;2022-12-05T13:00:01;7.40;99.90
43581;DHT22;29175;51.030;4.606;2022-12-05T13:08:15;7.50;99.90
43581;DHT22;29175;51.030;4.606;2022-12-05T13:10:45;7.60;99.90
43581;DHT22;29175;51.030;4.606;2022-12-05T13:13:18;7.40;99.90
43581;DHT22;29175;51.030;4.606;2022-12-05T13:15:51;7.10;99.90
43581;DHT22;29175;51.030;4.606;2022-12-05T13:18:21;7.40;99.90
43581;DHT22;29175;51.030;4.606;2022-12-05T13:20:49;7.30;99.90
43581;DHT22;29175;51.030;4.606;2022-12-05T13:23:20;7.40;99.90
43581;DHT22;29175;51.030;4.606;2022-12-05T13:25:47;7.30;99.90
43581;DHT22;29175;51.030;4.606;2022-12-05T13:28:31;7.10;99.90
43581;DHT22;29175;51.030;4.606;2022-12-05T13:30:59;7.30;99.90
43581;DHT22;29175;51.030;4.606;2022-12-05T13:33:34;7.30;99.90
43581;DHT22;29175;51.030;4.606;2022-12-05T13:36:07;7.30;99.90
43581;DHT22;29175;51.030;4.606;2022-12-05T13:38:56;7.20;99.90
43581;DHT22;29175;51.030;4.606;2022-12-05T13:41:47;7.10;99.90
43581;DHT22;29175;51.030;4.606;2022-12-05T13:44:41;7.20;99.90
43581;DHT22;29175;51.030;4.606;2022-12-05T13:50:15;7.30;99.90
43581;DHT22;29175;51.030;4.606;2022-12-05T13:52:55;7.20;99.90
43581;DHT22;29175;51.030;4.606;2022-12-05T13:55:33;7.20;99.90
43581;DHT22;29175;51.030;4.606;2022-12-05T13:58:00;7.20;99.90
43581;DHT22;29175;51.030;4.606;2022-12-05T14:00:29;7.30;99.90
43581;DHT22;29175;51.030;4.606;2022-12-05T14:07:56;7.10;99.90
43581;DHT22;29175;51.030;4.606;2022-12-05T14:12:57;7.40;99.90
43581;DHT22;29175;51.030;4.606;2022-12-05T14:15:28;7.50;99.90
43581;DHT22;29175;51.030;4.606;2022-12-05T14:23:57;7.60;99.90
43581;DHT22;29175;51.030;4.606;2022-12-05T14:30:03;7.30;99.90
43581;DHT22;29175;51.030;4.606;2022-12-05T14:32:39;7.10;99.90
43581;DHT22;29175;51.030;4.606;2022-12-05T14:35:16;7.10;99.90
43581;DHT22;29175;51.030;4.606;2022-12-05T14:40:31;7.30;99.90
43581;DHT22;29175;51.030;4.606;2022-12-05T14:43:20;7.30;99.90
43581;DHT22;29175;51.030;4.606;2022-12-05T14:50:50;7.20;99.90
43581;DHT22;29175;51.030;4.606;2022-12-05T14:56:04;7.20;99.90
43581;DHT22;29175;51.030;4.606;2022-12-05T15:01:38;7.20;99.90
43581;DHT22;29175;51.030;4.606;2022-12-05T15:07:01;7.10;99.90
43581;DHT22;29175;51.030;4.606;2022-12-05T15:12:20;7.30;99.90
43581;DHT22;29175;51.030;4.606;2022-12-05T15:17:51;7.30;99.90
43581;DHT22;29175;51.030;4.606;2022-12-05T15:20:36;7.20;99.90
43581;DHT22;29175;51.030;4.606;2022-12-05T15:26:02;7.20;99.90
43581;DHT22;29175;51.030;4.606;2022-12-05T15:28:28;7.20;99.90
43581;DHT22;29175;51.030;4.606;2022-12-05T15:30:55;7.10;99.90
43581;DHT22;29175;51.030;4.606;2022-12-05T15:33:22;7.20;99.90
43581;DHT22;29175;51.030;4.606;2022-12-05T15:35:49;7.30;99.90
43581;DHT22;29175;51.030;4.606;2022-12-05T15:38:23;7.30;99.90
43581;DHT22;29175;51.030;4.606;2022-12-05T15:40:49;7.30;99.90
43581;DHT22;29175;51.030;4.606;2022-12-05T15:43:33;7.30;99.90
43581;DHT22;29175;51.030;4.606;2022-12-05T15:46:23;7.30;99.90
43581;DHT22;29175;51.030;4.606;2022-12-05T15:48:54;7.40;99.90
43581;DHT22;29175;51.030;4.606;2022-12-05T15:51:26;7.30;99.90
43581;DHT22;29175;51.030;4.606;2022-12-05T15:54:16;7.30;99.90
43581;DHT22;29175;51.030;4.606;2022-12-05T15:57:06;7.40;99.90
43581;DHT22;29175;51.030;4.606;2022-12-05T15:59:41;7.40;99.90
43581;DHT22;29175;51.030;4.606;2022-12-05T16:03:02;7.40;99.90
43581;DHT22;29175;51.030;4.606;2022-12-05T16:05:22;7.40;99.90
43581;DHT22;29175;51.030;4.606;2022-12-05T16:07:50;7.40;99.90
43581;DHT22;29175;51.030;4.606;2022-12-05T16:10:18;7.40;99.90
43581;DHT22;29175;51.030;4.606;2022-12-05T16:12:46;7.40;99.90
43581;DHT22;29175;51.030;4.606;2022-12-05T16:15:24;7.30;99.90
43581;DHT22;29175;51.030;4.606;2022-12-05T16:17:55;7.40;99.90
43581;DHT22;29175;51.030;4.606;2022-12-05T16:20:34;7.40;99.90
43581;DHT22;29175;51.030;4.606;2022-12-05T16:23:20;7.40;99.90
43581;DHT22;29175;51.030;4.606;2022-12-05T16:25:47;7.30;99.90
43581;DHT22;29175;51.030;4.606;2022-12-05T16:28:16;7.40;99.90
43581;DHT22;29175;51.030;4.606;2022-12-05T16:30:58;7.50;99.90
43581;DHT22;29175;51.030;4.606;2022-12-05T16:33:25;7.40;99.90
43581;DHT22;29175;51.030;4.606;2022-12-05T16:35:53;7.40;99.90
43581;DHT22;29175;51.030;4.606;2022-12-05T16:38:28;7.50;99.90
43581;DHT22;29175;51.030;4.606;2022-12-05T16:40:59;7.40;99.90
43581;DHT22;29175;51.030;4.606;2022-12-05T16:51:44;7.40;99.90
43581;DHT22;29175;51.030;4.606;2022-12-05T16:54:10;7.40;99.90
43581;DHT22;29175;51.030;4.606;2022-12-05T16:56:36;7.50;99.90
43581;DHT22;29175;51.030;4.606;2022-12-05T16:59:04;7.50;99.90
43581;DHT22;29175;51.030;4.606;2022-12-05T17:01:31;7.40;99.90
43581;DHT22;29175;51.030;4.606;2022-12-05T17:03:58;7.50;99.90
43581;DHT22;29175;51.030;4.606;2022-12-05T17:06:25;7.50;99.90
43581;DHT22;29175;51.030;4.606;2022-12-05T17:08:52;7.60;99.90
43581;DHT22;29175;51.030;4.606;2022-12-05T17:11:22;7.70;99.90
43581;DHT22;29175;51.030;4.606;2022-12-05T17:13:49;7.60;99.90
43581;DHT22;29175;51.030;4.606;2022-12-05T17:16:16;7.60;99.90
43581;DHT22;29175;51.030;4.606;2022-12-05T17:18:43;7.50;99.90
43581;DHT22;29175;51.030;4.606;2022-12-05T17:21:14;7.60;99.90
43581;DHT22;29175;51.030;4.606;2022-12-05T17:23:41;7.60;99.90
43581;DHT22;29175;51.030;4.606;2022-12-05T17:26:14;7.50;99.90
43581;DHT22;29175;51.030;4.606;2022-12-05T17:28:40;7.50;99.90
43581;DHT22;29175;51.030;4.606;2022-12-05T17:31:08;7.50;99.90
43581;DHT22;29175;51.030;4.606;2022-12-05T17:33:34;7.60;99.90
43581;DHT22;29175;51.030;4.606;2022-12-05T17:36:00;7.60;99.90
43581;DHT22;29175;51.030;4.606;2022-12-05T17:38:26;7.50;99.90
43581;DHT22;29175;51.030;4.606;2022-12-05T17:40:52;7.60;99.90
43581;DHT22;29175;51.030;4.606;2022-12-05T17:43:18;7.50;99.90
43581;DHT22;29175;51.030;4.606;2022-12-05T17:45:44;7.40;99.90
43581;DHT22;29175;51.030;4.606;2022-12-05T17:48:14;7.40;99.90
43581;DHT22;29175;51.030;4.606;2022-12-05T17:50:41;7.50;99.90
43581;DHT22;29175;51.030;4.606;2022-12-05T17:53:11;7.60;99.90
43581;DHT22;29175;51.030;4.606;2022-12-05T17:55:37;7.60;99.90
43581;DHT22;29175;51.030;4.606;2022-12-05T17:58:03;7.60;99.90
43581;DHT22;29175;51.030;4.606;2022-12-05T18:00:29;7.60;99.90
43581;DHT22;29175;51.030;4.606;2022-12-05T18:02:55;7.60;99.90
43581;DHT22;29175;51.030;4.606;2022-12-05T18:05:21;7.70;99.90
43581;DHT22;29175;51.030;4.606;2022-12-05T18:07:46;7.60;99.90
43581;DHT22;29175;51.030;4.606;2022-12-05T18:10:17;7.50;99.90
43581;DHT22;29175;51.030;4.606;2022-12-05T18:12:44;7.70;99.90
43581;DHT22;29175;51.030;4.606;2022-12-05T18:15:11;7.70;99.90
43581;DHT22;29175;51.030;4.606;2022-12-05T18:17:37;7.60;99.90
43581;DHT22;29175;51.030;4.606;2022-12-05T18:20:06;7.60;99.90
43581;DHT22;29175;51.030;4.606;2022-12-05T18:22:33;7.50;99.90
43581;DHT22;29175;51.030;4.606;2022-12-05T18:24:59;7.60;99.90
43581;DHT22;29175;51.030;4.606;2022-12-05T18:27:26;7.50;99.90
43581;DHT22;29175;51.030;4.606;2022-12-05T18:29:51;7.50;99.90
43581;DHT22;29175;51.030;4.606;2022-12-05T18:32:17;7.50;99.90
43581;DHT22;29175;51.030;4.606;2022-12-05T18:34:44;7.70;99.90
43581;DHT22;29175;51.030;4.606;2022-12-05T18:37:10;7.70;99.90
43581;DHT22;29175;51.030;4.606;2022-12-05T18:39:37;7.70;99.90
43581;DHT22;29175;51.030;4.606;2022-12-05T18:42:04;7.70;99.90
43581;DHT22;29175;51.030;4.606;2022-12-05T18:44:31;7.70;99.90
43581;DHT22;29175;51.030;4.606;2022-12-05T18:46:57;7.70;99.90
43581;DHT22;29175;51.030;4.606;2022-12-05T18:49:22;7.60;99.90